Harry B. Settoon — WDE5658 — position and weather

sailwx.info

Track history (hours):
 
Tides and Currents Weather Stations Pressure Air Temp Water Temp Dewpoint Dewpoint Depression Visibility Wind Speed Wind Dir Waves Ship Positions

Harry B. Settoon

Owner: Settoon Towing, LLC, Houma, LA. More information available from US FCC via Universal Licensing System and Coast Guard Vessel Documentation Center.

Last reported at 2017-Oct-14 23:20 UTC. Time now 2017-Oct-17 17:19 UTC.
Position N 29°23' W 090°44'.

Length 16 m.

Type: Tug. MMSI: 367369920.

Date/timePositionNaut miles runAvg speedWind from/ knotsBaromVisibWave heightAir tempDewpointWater temp
2017-Oct-14 23:20N 29°23' W 090°44'2 5.8
2017-Oct-14 23:01N 29°25' W 090°44'3 5.8
2017-Oct-14 22:31N 29°28' W 090°43'3 5.7
2017-Oct-14 22:01N 29°30' W 090°43'3 5.4
2017-Oct-14 21:31N 29°33' W 090°42'2 3.4
2017-Oct-14 21:01N 29°34' W 090°44'2 4.8
2017-Oct-14 20:31N 29°32' W 090°46'3 5.1
2017-Oct-14 20:00N 29°32' W 090°49'57 1.7
2017-Oct-13 10:39N 29°51' W 091°51'1 5.7
2017-Oct-13 10:30N 29°51' W 091°50'4 3.5
2017-Oct-13 09:21N 29°55' W 091°50'0 0.4
2017-Oct-13 09:01N 29°56' W 091°50'0 0.1
2017-Oct-13 08:31N 29°56' W 091°50'0 0.0
2017-Oct-13 06:45N 29°56' W 091°50'  
2017-Oct-05 18:32N 29°36' W 090°58'2 6.8
2017-Oct-05 18:16N 29°34' W 090°57'2 7.1
2017-Oct-05 18:00N 29°33' W 090°55'3 6.9
2017-Oct-05 17:30N 29°32' W 090°51'4 7.3
2017-Oct-05 17:00N 29°32' W 090°47'5 3.4
2017-Oct-05 15:30N 29°29' W 090°43'4 7.1
2017-Oct-05 15:00N 29°25' W 090°43'  
Track history (hours):
 
Tides and Currents Weather Stations Pressure Air Temp Water Temp Dewpoint Dewpoint Depression Visibility Wind Speed Wind Dir Waves Ship Positions

Harry B. Settoon

Owner: Settoon Towing, LLC, Houma, LA. More information available from US FCC via Universal Licensing System and Coast Guard Vessel Documentation Center.

Last reported at 2017-Oct-14 23:20 UTC. Time now 2017-Oct-17 17:19 UTC.
Position N 29°23' W 090°44'.

Length 16 m.

Type: Tug. MMSI: 367369920.

Date/timePositionNaut miles runAvg speedWind from/ knotsBaromVisibWave heightAir tempDewpointWater temp
2017-Oct-14 23:20N 29°23' W 090°44'2 5.8
2017-Oct-14 23:01N 29°25' W 090°44'3 5.8
2017-Oct-14 22:31N 29°28' W 090°43'3 5.7
2017-Oct-14 22:01N 29°30' W 090°43'3 5.4
2017-Oct-14 21:31N 29°33' W 090°42'2 3.4
2017-Oct-14 21:01N 29°34' W 090°44'2 4.8
2017-Oct-14 20:31N 29°32' W 090°46'3 5.1
2017-Oct-14 20:00N 29°32' W 090°49'57 1.7
2017-Oct-13 10:39N 29°51' W 091°51'1 5.7
2017-Oct-13 10:30N 29°51' W 091°50'4 3.5
2017-Oct-13 09:21N 29°55' W 091°50'0 0.4
2017-Oct-13 09:01N 29°56' W 091°50'0 0.1
2017-Oct-13 08:31N 29°56' W 091°50'0 0.0
2017-Oct-13 06:45N 29°56' W 091°50'  
2017-Oct-05 18:32N 29°36' W 090°58'2 6.8
2017-Oct-05 18:16N 29°34' W 090°57'2 7.1
2017-Oct-05 18:00N 29°33' W 090°55'3 6.9
2017-Oct-05 17:30N 29°32' W 090°51'4 7.3
2017-Oct-05 17:00N 29°32' W 090°47'5 3.4
2017-Oct-05 15:30N 29°29' W 090°43'4 7.1
2017-Oct-05 15:00N 29°25' W 090°43'  

Dump ship's entire track history